Estación Meteorológica Peña el Pijo (Robertgarden) [ 07/19/18 09:42:48 CEST ]

Fecha Hora Presion(HPa) Temp (°C) Humedad % Rocio (°C) Viento ( m/s) Direccion Lluvia 1Hora(mm) Lluvia 24H(mm) LLuvia Total(mm)
2017-Dec-22 01:01:37 1024.400 0.4 80 -2.6         21.23
2017-Dec-22 02:01:42 1024.000 0.4 81 -2.5         21.23
2017-Dec-22 03:03:10 1024.000 -0.2 81 -3.0         21.23
2017-Dec-22 04:01:58 1023.600 0.3 83 -2.2         21.23
2017-Dec-22 05:01:41 1023.100 0.5 83 -2.1         21.23
2017-Dec-22 06:01:56 1023.100 0.5 83 -2.1         21.23
2017-Dec-22 07:01:43 1022.500 0.6 83 -2.0         21.23
2017-Dec-22 08:01:49 1022.700 0.7 83 -1.9         21.23
2017-Dec-22 09:01:47 1022.800 0.9 83 -1.7         21.23
2017-Dec-22 10:01:40 1023.000 5.3 82 2.4         21.23
2017-Dec-22 11:01:50 1023.100 10.8 68 5.1         21.23
2017-Dec-22 12:02:18 1022.400 14.8 47 3.6         21.23
2017-Dec-22 13:01:53 1021.600 15.5 41 2.3         21.23
2017-Dec-22 14:01:55 1020.800 16.8 37 1.9         21.23
2017-Dec-22 15:01:48 1020.000 16.2 36 1.0 0.8 NW     21.23
2017-Dec-22 16:01:46 1019.700 15.4 37 0.7 1.1 WNW     21.23
2017-Dec-22 17:01:42 1019.800 12.9 41 -0.1         21.23
2017-Dec-22 18:01:45 1019.800 10.1 45 -1.4         21.23
2017-Dec-22 19:01:45 1020.300 6.8 54 -1.9         21.23
2017-Dec-22 20:01:46 1020.400 4.8 61 -2.1         21.23
2017-Dec-22 21:01:43 1020.600 4.1 64 -2.2         21.23
2017-Dec-22 22:01:40 1020.600 3.8 67 -2.0         21.23
2017-Dec-22 23:01:52 1020.800 2.5 70 -2.4         21.23

Temperatura Máxima:16°    Temperatura Mínima:
Presión Máxima:1024.400 Hpa    Presión Mínima:1019.700 Hpa


Volver